Airfield :
LOGIN :

Register | Disclaimer

   EN    FR    IT 

 










Legend :    VFR   Marginal VFR   IFR   Intensive IFR   Very Intensive IFR
Visi :
Ceiling :
>= 8 km
>= 3000ft
5 to 8 km
1000 to 3000 ft
1500m to 5 km
500 to 1000 ft
800 to 1500m
200 to 500 ft
< 800m
< 200 ft
Symbols :   Thunderstorms  Fog  Heavy snow  Heavy precipitations  Wind > 20 kt
SIGMETs :     Misc.  Thunderstorms  Icing  Turbulence  Mountain Waves  Volcanic Ashes







- Airport Elevation : 308 ft
- IATA code : MHG


EDFM - Mannheim-City

CURRENT METAR :
  • 101920Z 28009KT 9999 FEW030 SCT093 05/01 Q1023

EXPIRED METARs :
  • 101850Z 30005KT 260V350 9999 -RA FEW042 BKN063 BKN080 05/02 Q1023
  • 101820Z 27009KT 250V310 9999 -RA FEW020 BKN056 BKN081 05/02 Q1022
  • 101750Z 30012KT 270V330 9999 -RA FEW014 SCT049 BKN068 05/02 Q1022
  • 101720Z 31014G24KT 290V350 9999 BKN017 BKN042 05/03 Q1022

TAF TAF EDFM
Valid from the 10 at 18:00 until the 10 at 21:00 UTC


101700Z 1018/1021 27007KT 9999 SCT040
PROB30
TEMPO 1018/1020 SHRA BKN025TCU
No reported NOTAMs for that airfield.
2 SIGMETs reported for the Langen FIR (EDGG) :
 
Severe turbulence
EDGG SIGMET 3 VALID 102000/102330 EDZF
EDGG LANGEN FIR SEV TURB FCST APRX 50NM WID LINE BTN N5157 E00655 - N4755 E00906 FL180/240 MOV E NC=
Severe turbulence
EDGG SIGMET 2 VALID 101704/102000 EDZF
EDGG LANGEN FIR SEV TURB FCST APRX 40NM WID LINE BTN N5103 E00555 - N4755 E00906 FL180/240 MOV E NC=



MET'MAP, your aeronautical weather chart ! - Copyright ORBIFLY December 2007 - Disclaimer

ORBIFLY MET'MAP TEAM :

Programming & Development : Alexandra Zaïnal
Concept & Development : Baudouin d'Aumeries
Co-Development & Prog : Marc-Olivier Méhu
Technical & hardware support : Manuel Goepfert

Contact : metmap@orbifly.com




SOURCES & CREDITS :

   NOAA